SAS875 EKCH-EKYT
Flight info
| Callsign | SAS875 |
|---|---|
| Flight time | 0h 34m |
| Altitude | 16000 |
| Route | GOLGA T506 LAPMA L621 AAL |
| Aircraft | A20N/M-SDE2E3FGHIRWXY/LB1 |
Departure
| Time | 2026-05-04 18:12 |
|---|---|
| Airport | Copenhagen Kastrup Airport (EKCH) |
Arrival
| Time | 2026-05-04 18:46 |
|---|---|
| Airport | Aalborg Airport (EKYT) |
| Time | Latitude | Longitude | Altitude | Speed | Heading |
|---|---|---|---|---|---|
| 2026-05-04 17:44 | 55.62719 | 12.65784 | 19 ft | 0 kts | 268° |
| 2026-05-04 17:53 | 55.62719 | 12.65802 | 18 ft | 2 kts | 278° |
| 2026-05-04 17:53 | 55.62716 | 12.65831 | 17 ft | 2 kts | 289° |
| 2026-05-04 17:54 | 55.62709 | 12.65857 | 17 ft | 2 kts | 307° |
| 2026-05-04 17:54 | 55.62698 | 12.65877 | 19 ft | 2 kts | 326° |
| 2026-05-04 17:54 | 55.62684 | 12.65891 | 17 ft | 2 kts | 342° |
| 2026-05-04 17:54 | 55.62668 | 12.65897 | 17 ft | 2 kts | 354° |
| 2026-05-04 17:55 | 55.62659 | 12.65898 | 18 ft | 0 kts | 358° |
| 2026-05-04 17:55 | 55.62658 | 12.65898 | 18 ft | 0 kts | 358° |
| 2026-05-04 18:02 | 55.62746 | 12.65960 | 17 ft | 11 kts | 81° |
| 2026-05-04 18:02 | 55.62719 | 12.66017 | 17 ft | 5 kts | 184° |
| 2026-05-04 18:02 | 55.62655 | 12.66077 | 17 ft | 16 kts | 140° |
| 2026-05-04 18:02 | 55.62569 | 12.66143 | 17 ft | 14 kts | 173° |
| 2026-05-04 18:03 | 55.62489 | 12.66079 | 17 ft | 11 kts | 225° |
| 2026-05-04 18:03 | 55.62448 | 12.65978 | 17 ft | 0 kts | 258° |
| 2026-05-04 18:03 | 55.62445 | 12.65909 | 18 ft | 11 kts | 268° |
| 2026-05-04 18:03 | 55.62444 | 12.65849 | 17 ft | 0 kts | 269° |
| 2026-05-04 18:04 | 55.62443 | 12.65788 | 17 ft | 9 kts | 269° |
| 2026-05-04 18:05 | 55.62442 | 12.65695 | 17 ft | 14 kts | 269° |
| 2026-05-04 18:05 | 55.62440 | 12.65515 | 17 ft | 16 kts | 269° |
| 2026-05-04 18:05 | 55.62438 | 12.65400 | 17 ft | 4 kts | 269° |
| 2026-05-04 18:05 | 55.62437 | 12.65297 | 17 ft | 12 kts | 269° |
| 2026-05-04 18:06 | 55.62326 | 12.65206 | 17 ft | 4 kts | 179° |
| 2026-05-04 18:06 | 55.62281 | 12.65146 | 18 ft | 12 kts | 247° |
| 2026-05-04 18:06 | 55.62310 | 12.64977 | 18 ft | 17 kts | 302° |
| 2026-05-04 18:07 | 55.62355 | 12.64843 | 17 ft | 6 kts | 279° |
| 2026-05-04 18:07 | 55.62331 | 12.64745 | 17 ft | 13 kts | 248° |
| 2026-05-04 18:07 | 55.62293 | 12.64589 | 17 ft | 4 kts | 246° |
| 2026-05-04 18:07 | 55.62289 | 12.64576 | 17 ft | 0 kts | 246° |
| 2026-05-04 18:08 | 55.62285 | 12.64559 | 17 ft | 5 kts | 246° |
| 2026-05-04 18:08 | 55.62257 | 12.64445 | 18 ft | 16 kts | 246° |
| 2026-05-04 18:09 | 55.62007 | 12.64184 | 17 ft | 21 kts | 205° |
| 2026-05-04 18:09 | 55.61757 | 12.64080 | 17 ft | 0 kts | 176° |
| 2026-05-04 18:10 | 55.61754 | 12.64080 | 17 ft | 0 kts | 176° |
| 2026-05-04 18:11 | 55.61741 | 12.64082 | 18 ft | 6 kts | 176° |
| 2026-05-04 18:11 | 55.61663 | 12.64089 | 20 ft | 15 kts | 185° |
| 2026-05-04 18:11 | 55.61553 | 12.63963 | 19 ft | 27 kts | 222° |
| 2026-05-04 18:12 | 55.61222 | 12.63448 | 21 ft | 97 kts | 221° |
| 2026-05-04 18:12 | 55.60574 | 12.62443 | 24 ft | 148 kts | 224° |
| 2026-05-04 18:12 | 55.59799 | 12.61262 | 593 ft | 144 kts | 224° |
| 2026-05-04 18:12 | 55.59027 | 12.60099 | 1130 ft | 148 kts | 224° |
| 2026-05-04 18:13 | 55.58243 | 12.58888 | 1656 ft | 150 kts | 225° |
| 2026-05-04 18:13 | 55.57456 | 12.57656 | 2166 ft | 151 kts | 225° |
| 2026-05-04 18:13 | 55.56083 | 12.54959 | 3180 ft | 143 kts | 251° |
| 2026-05-04 18:14 | 55.55885 | 12.53288 | 3673 ft | 136 kts | 273° |
| 2026-05-04 18:14 | 55.56020 | 12.51686 | 4171 ft | 128 kts | 281° |
| 2026-05-04 18:14 | 55.56169 | 12.50174 | 4629 ft | 123 kts | 280° |
| 2026-05-04 18:15 | 55.56478 | 12.46863 | 5781 ft | 152 kts | 279° |
| 2026-05-04 18:15 | 55.56862 | 12.42805 | 6671 ft | 185 kts | 279° |
| 2026-05-04 18:15 | 55.57090 | 12.40408 | 6918 ft | 209 kts | 279° |
| 2026-05-04 18:16 | 55.57343 | 12.37755 | 7229 ft | 229 kts | 279° |
| 2026-05-04 18:16 | 55.57723 | 12.34900 | 7443 ft | 250 kts | 291° |
| 2026-05-04 18:16 | 55.58761 | 12.32339 | 7776 ft | 265 kts | 316° |
| 2026-05-04 18:17 | 55.62303 | 12.30291 | 8832 ft | 280 kts | 350° |
| 2026-05-04 18:17 | 55.64247 | 12.29954 | 9359 ft | 282 kts | 350° |
| 2026-05-04 18:17 | 55.68208 | 12.29257 | 10167 ft | 294 kts | 349° |
| 2026-05-04 18:18 | 55.70284 | 12.28870 | 10298 ft | 306 kts | 349° |
| 2026-05-04 18:18 | 55.72442 | 12.28463 | 10391 ft | 316 kts | 349° |
| 2026-05-04 18:18 | 55.74649 | 12.28048 | 10533 ft | 322 kts | 349° |
| 2026-05-04 18:18 | 55.76852 | 12.27407 | 10766 ft | 320 kts | 341° |
| 2026-05-04 18:19 | 55.80715 | 12.24333 | 12114 ft | 286 kts | 324° |
| 2026-05-04 18:19 | 55.82376 | 12.22555 | 13092 ft | 271 kts | 324° |
| 2026-05-04 18:19 | 55.83993 | 12.20842 | 13955 ft | 281 kts | 324° |
| 2026-05-04 18:20 | 55.85746 | 12.18959 | 14235 ft | 307 kts | 324° |
| 2026-05-04 18:20 | 55.87643 | 12.16920 | 14521 ft | 331 kts | 324° |
| 2026-05-04 18:20 | 55.89634 | 12.14662 | 15001 ft | 342 kts | 319° |
| 2026-05-04 18:20 | 55.91486 | 12.11967 | 15348 ft | 343 kts | 315° |
| 2026-05-04 18:21 | 55.93238 | 12.09170 | 15456 ft | 343 kts | 314° |
| 2026-05-04 18:21 | 55.95031 | 12.06276 | 15568 ft | 343 kts | 314° |
| 2026-05-04 18:21 | 55.96791 | 12.03480 | 15677 ft | 344 kts | 315° |
| 2026-05-04 18:21 | 55.98594 | 12.00659 | 15776 ft | 345 kts | 315° |
| 2026-05-04 18:22 | 56.00405 | 11.97854 | 15928 ft | 344 kts | 315° |
| 2026-05-04 18:22 | 56.02213 | 11.95061 | 15941 ft | 344 kts | 315° |
| 2026-05-04 18:22 | 56.04023 | 11.92266 | 15942 ft | 344 kts | 315° |
| 2026-05-04 18:22 | 56.05834 | 11.89468 | 15940 ft | 344 kts | 315° |
| 2026-05-04 18:23 | 56.07644 | 11.86666 | 15940 ft | 344 kts | 315° |
| 2026-05-04 18:23 | 56.09450 | 11.83865 | 15941 ft | 344 kts | 315° |
| 2026-05-04 18:23 | 56.11257 | 11.81060 | 15942 ft | 344 kts | 315° |
| 2026-05-04 18:23 | 56.13064 | 11.78250 | 15940 ft | 344 kts | 315° |
| 2026-05-04 18:24 | 56.14870 | 11.75438 | 15940 ft | 344 kts | 315° |
| 2026-05-04 18:24 | 56.16674 | 11.72626 | 15940 ft | 344 kts | 315° |
| 2026-05-04 18:24 | 56.18480 | 11.69808 | 15940 ft | 344 kts | 315° |
| 2026-05-04 18:24 | 56.20281 | 11.66994 | 15929 ft | 343 kts | 315° |
| 2026-05-04 18:25 | 56.22072 | 11.64193 | 15694 ft | 341 kts | 315° |
| 2026-05-04 18:25 | 56.23855 | 11.61400 | 15251 ft | 338 kts | 315° |
| 2026-05-04 18:25 | 56.25625 | 11.58624 | 14703 ft | 336 kts | 315° |
| 2026-05-04 18:25 | 56.27382 | 11.55866 | 14159 ft | 334 kts | 315° |
| 2026-05-04 18:26 | 56.29122 | 11.53130 | 13602 ft | 331 kts | 315° |
| 2026-05-04 18:26 | 56.30842 | 11.50420 | 13295 ft | 323 kts | 315° |
| 2026-05-04 18:26 | 56.32552 | 11.47723 | 13180 ft | 330 kts | 314° |
| 2026-05-04 18:26 | 56.34276 | 11.44998 | 13055 ft | 329 kts | 314° |
| 2026-05-04 18:27 | 56.35991 | 11.42287 | 12951 ft | 328 kts | 314° |
| 2026-05-04 18:27 | 56.37704 | 11.39577 | 12939 ft | 327 kts | 314° |
| 2026-05-04 18:27 | 56.39415 | 11.36866 | 12939 ft | 328 kts | 314° |
| 2026-05-04 18:27 | 56.41129 | 11.34147 | 12939 ft | 328 kts | 314° |
| 2026-05-04 18:28 | 56.42840 | 11.31429 | 12941 ft | 328 kts | 314° |
| 2026-05-04 18:28 | 56.44553 | 11.28706 | 12937 ft | 328 kts | 314° |
| 2026-05-04 18:28 | 56.46266 | 11.25979 | 12939 ft | 328 kts | 314° |
| 2026-05-04 18:28 | 56.47978 | 11.23250 | 12939 ft | 328 kts | 314° |
| 2026-05-04 18:29 | 56.49689 | 11.20519 | 12939 ft | 328 kts | 314° |
| 2026-05-04 18:29 | 56.51397 | 11.17789 | 12924 ft | 327 kts | 314° |
| 2026-05-04 18:29 | 56.53095 | 11.15074 | 12672 ft | 325 kts | 314° |
| 2026-05-04 18:29 | 56.54786 | 11.12366 | 12198 ft | 323 kts | 314° |
| 2026-05-04 18:30 | 56.58129 | 11.06999 | 11107 ft | 319 kts | 314° |
| 2026-05-04 18:30 | 56.59782 | 11.04341 | 10551 ft | 317 kts | 314° |
| 2026-05-04 18:30 | 56.61422 | 11.01701 | 10183 ft | 310 kts | 315° |
| 2026-05-04 18:31 | 56.62995 | 10.99172 | 10083 ft | 295 kts | 314° |
| 2026-05-04 18:31 | 56.64496 | 10.96757 | 9956 ft | 281 kts | 314° |
| 2026-05-04 18:31 | 56.65924 | 10.94453 | 9797 ft | 269 kts | 314° |
| 2026-05-04 18:31 | 56.67315 | 10.92201 | 9398 ft | 267 kts | 314° |
| 2026-05-04 18:32 | 56.68696 | 10.89956 | 8950 ft | 267 kts | 314° |
| 2026-05-04 18:32 | 56.70072 | 10.87719 | 8632 ft | 263 kts | 314° |
| 2026-05-04 18:32 | 56.71446 | 10.85484 | 8373 ft | 266 kts | 314° |
| 2026-05-04 18:32 | 56.72821 | 10.83248 | 8115 ft | 263 kts | 314° |
| 2026-05-04 18:33 | 56.74190 | 10.81023 | 7858 ft | 264 kts | 315° |
| 2026-05-04 18:33 | 56.75553 | 10.78805 | 7600 ft | 263 kts | 315° |
| 2026-05-04 18:33 | 56.76915 | 10.76587 | 7355 ft | 262 kts | 315° |
| 2026-05-04 18:33 | 56.78272 | 10.74374 | 7110 ft | 261 kts | 315° |
| 2026-05-04 18:34 | 56.79628 | 10.72162 | 6858 ft | 262 kts | 315° |
| 2026-05-04 18:34 | 56.80965 | 10.69978 | 6615 ft | 261 kts | 315° |
| 2026-05-04 18:34 | 56.82333 | 10.67740 | 6362 ft | 260 kts | 315° |
| 2026-05-04 18:34 | 56.83659 | 10.65570 | 6104 ft | 260 kts | 315° |
| 2026-05-04 18:35 | 56.85003 | 10.63367 | 5840 ft | 258 kts | 315° |
| 2026-05-04 18:35 | 56.86337 | 10.61179 | 5578 ft | 258 kts | 315° |
| 2026-05-04 18:35 | 56.87667 | 10.58997 | 5339 ft | 256 kts | 315° |
| 2026-05-04 18:35 | 56.88991 | 10.56820 | 5110 ft | 256 kts | 315° |
| 2026-05-04 18:36 | 56.90314 | 10.54643 | 4874 ft | 254 kts | 315° |
| 2026-05-04 18:36 | 56.91624 | 10.52485 | 4651 ft | 254 kts | 315° |
| 2026-05-04 18:36 | 56.92943 | 10.50309 | 4413 ft | 253 kts | 315° |
| 2026-05-04 18:36 | 56.94239 | 10.48173 | 4193 ft | 250 kts | 315° |
| 2026-05-04 18:37 | 56.95522 | 10.46058 | 3962 ft | 245 kts | 315° |
| 2026-05-04 18:37 | 56.96779 | 10.43981 | 3732 ft | 245 kts | 315° |
| 2026-05-04 18:37 | 56.98041 | 10.41891 | 3500 ft | 242 kts | 315° |
| 2026-05-04 18:37 | 56.99283 | 10.39832 | 3275 ft | 241 kts | 315° |
| 2026-05-04 18:38 | 57.00526 | 10.37771 | 3038 ft | 239 kts | 315° |
| 2026-05-04 18:38 | 57.01753 | 10.35737 | 2803 ft | 238 kts | 315° |
| 2026-05-04 18:38 | 57.02976 | 10.33707 | 2569 ft | 235 kts | 315° |
| 2026-05-04 18:38 | 57.04174 | 10.31718 | 2272 ft | 231 kts | 315° |
| 2026-05-04 18:39 | 57.05343 | 10.29775 | 2113 ft | 221 kts | 315° |
| 2026-05-04 18:39 | 57.06455 | 10.27928 | 2011 ft | 210 kts | 314° |
| 2026-05-04 18:39 | 57.07503 | 10.26186 | 2003 ft | 204 kts | 314° |
| 2026-05-04 18:39 | 57.08580 | 10.24382 | 1992 ft | 204 kts | 314° |
| 2026-05-04 18:40 | 57.09586 | 10.22708 | 1998 ft | 187 kts | 314° |
| 2026-05-04 18:40 | 57.10505 | 10.21183 | 2021 ft | 167 kts | 313° |
| 2026-05-04 18:40 | 57.11176 | 10.19652 | 2006 ft | 139 kts | 295° |
| 2026-05-04 18:40 | 57.11442 | 10.18164 | 1992 ft | 111 kts | 279° |
| 2026-05-04 18:41 | 57.11494 | 10.16725 | 1992 ft | 111 kts | 270° |
| 2026-05-04 18:41 | 57.11442 | 10.15319 | 2001 ft | 110 kts | 266° |
| 2026-05-04 18:41 | 57.11355 | 10.13930 | 2000 ft | 109 kts | 266° |
| 2026-05-04 18:41 | 57.11265 | 10.12539 | 2001 ft | 111 kts | 266° |
| 2026-05-04 18:42 | 57.11174 | 10.11129 | 2001 ft | 112 kts | 267° |
| 2026-05-04 18:42 | 57.11083 | 10.09717 | 2001 ft | 111 kts | 267° |
| 2026-05-04 18:42 | 57.10991 | 10.08308 | 1999 ft | 110 kts | 266° |
| 2026-05-04 18:42 | 57.10901 | 10.06919 | 2000 ft | 110 kts | 266° |
| 2026-05-04 18:43 | 57.10811 | 10.05523 | 1961 ft | 110 kts | 266° |
| 2026-05-04 18:43 | 57.10720 | 10.04123 | 1845 ft | 110 kts | 266° |
| 2026-05-04 18:43 | 57.10629 | 10.02730 | 1698 ft | 109 kts | 265° |
| 2026-05-04 18:43 | 57.10538 | 10.01322 | 1533 ft | 112 kts | 265° |
| 2026-05-04 18:44 | 57.10447 | 9.99910 | 1389 ft | 113 kts | 265° |
| 2026-05-04 18:44 | 57.10416 | 9.99441 | 1368 ft | 114 kts | 265° |
| 2026-05-04 18:44 | 57.10249 | 9.96859 | 1063 ft | 120 kts | 265° |
| 2026-05-04 18:44 | 57.10156 | 9.95431 | 908 ft | 114 kts | 265° |
| 2026-05-04 18:45 | 57.10063 | 9.94010 | 746 ft | 110 kts | 265° |
| 2026-05-04 18:45 | 57.09962 | 9.92558 | 591 ft | 115 kts | 264° |
| 2026-05-04 18:45 | 57.09864 | 9.91117 | 436 ft | 114 kts | 266° |
| 2026-05-04 18:45 | 57.09771 | 9.89655 | 277 ft | 115 kts | 266° |
| 2026-05-04 18:46 | 57.09686 | 9.88211 | 117 ft | 113 kts | 264° |
| 2026-05-04 18:46 | 57.09594 | 9.86802 | 19 ft | 103 kts | 263° |
| 2026-05-04 18:46 | 57.09525 | 9.85753 | 16 ft | 61 kts | 263° |
| 2026-05-04 18:46 | 57.09491 | 9.85197 | 16 ft | 35 kts | 263° |
| 2026-05-04 18:47 | 57.09462 | 9.84743 | 19 ft | 36 kts | 263° |
| 2026-05-04 18:47 | 57.09417 | 9.84338 | 19 ft | 26 kts | 225° |
| 2026-05-04 18:47 | 57.09385 | 9.84315 | 17 ft | 6 kts | 173° |
| 2026-05-04 18:47 | 57.09321 | 9.84413 | 16 ft | 20 kts | 141° |
| 2026-05-04 18:48 | 57.09266 | 9.84659 | 16 ft | 24 kts | 86° |
| 2026-05-04 18:48 | 57.09282 | 9.85008 | 17 ft | 30 kts | 82° |
| 2026-05-04 18:48 | 57.09309 | 9.85401 | 17 ft | 31 kts | 83° |
| 2026-05-04 18:48 | 57.09334 | 9.85785 | 17 ft | 22 kts | 84° |
| 2026-05-04 18:49 | 57.09249 | 9.86024 | 18 ft | 24 kts | 141° |
| 2026-05-04 18:49 | 57.09132 | 9.86189 | 18 ft | 19 kts | 143° |
| 2026-05-04 18:49 | 57.09013 | 9.86356 | 18 ft | 25 kts | 141° |
| 2026-05-04 18:49 | 57.08858 | 9.86580 | 18 ft | 22 kts | 142° |
| 2026-05-04 18:50 | 57.08754 | 9.86731 | 18 ft | 24 kts | 141° |
| 2026-05-04 18:50 | 57.08697 | 9.86851 | 18 ft | 2 kts | 49° |
| 2026-05-04 18:50 | 57.08706 | 9.86870 | 18 ft | 6 kts | 47° |